Time;durP1;ratioP1;P1;durP2;ratioP2;P2;SDS_P1;SDS_P2;PMS_P1;PMS_P2;Temp;Humidity;BMP_temperature;BMP_pressure;BME280_temperature;BME280_humidity;BME280_pressure;Samples;Min_cycle;Max_cycle;Signal;HPM_P1;HPM_P2
2023/03/30 00:02:11;;;;;;;;;;;;;;;;;;5035657;28;20002;-68
2023/03/30 00:04:41;;;;;;;;;;;;;;;;;;5035911;28;20343;-68
2023/03/30 00:07:08;;;;;;;;;;;;;;;;;;5035178;28;20431;-68
2023/03/30 00:09:41;;;;;;;;;;;;;;;;;;5035267;28;20031;-68
2023/03/30 00:12:07;;;;;;;;;;;;;;;;;;5034025;28;19963;-69
2023/03/30 00:14:36;;;;;;;;;;;;;;;;;;5035730;28;20294;-68
2023/03/30 00:17:02;;;;;;;;;;;;;;;;;;5035103;28;19952;-69
2023/03/30 00:19:28;;;;;;;;;;;;;;;;;;5035024;28;20001;-68
2023/03/30 00:21:53;;;;;;;;;;;;;;;;;;5034632;28;19987;-70
2023/03/30 00:24:19;;;;;;;;;;;;;;;;;;5034977;28;19951;-68
2023/03/30 00:26:45;;;;;;;;;;;;;;;;;;5035084;28;19980;-69
2023/03/30 00:29:11;;;;;;;;;;;;;;;;;;5034767;28;20443;-67
2023/03/30 00:31:37;;;;;;;;;;;;;;;;;;5035083;28;19948;-68
2023/03/30 00:34:03;;;;;;;;;;;;;;;;;;5034811;28;19960;-68
2023/03/30 00:36:29;;;;;;;;;;;;;;;;;;5034996;28;20009;-68
2023/03/30 00:38:55;;;;;;;;;;;;;;;;;;5034659;28;20366;-69
2023/03/30 00:41:21;;;;;;;;;;;;;;;;;;5034882;28;19963;-68
2023/03/30 00:43:47;;;;;;;;;;;;;;;;;;5034568;28;19950;-68
2023/03/30 00:46:12;;;;;;;;;;;;;;;;;;5035000;28;20069;-69
2023/03/30 00:48:39;;;;;;;;;;;;;;;;;;5034494;28;19976;-67
2023/03/30 00:51:06;;;;;;;;;;;;;;;;;;5034428;28;19968;-68
2023/03/30 00:53:32;;;;;;;;;;;;;;;;;;5034397;28;19944;-68
2023/03/30 00:55:57;;;;;;;;;;;;;;;;;;5034926;28;20308;-69
2023/03/30 00:58:23;;;;;;;;;;;;;;;;;;5034280;28;19968;-69
2023/03/30 01:00:49;;;;;;;;;;;;;;;;;;5034281;28;19952;-67
2023/03/30 01:03:15;;;;;;;;;;;;;;;;;;5034506;28;19945;-69
2023/03/30 01:05:41;;;;;;;;;;;;;;;;;;5034124;28;20069;-68
2023/03/30 01:08:07;;;;;;;;;;;;;;;;;;5034136;28;20000;-69
2023/03/30 01:10:33;;;;;;;;;;;;;;;;;;5034386;28;19953;-69
2023/03/30 01:12:59;;;;;;;;;;;;;;;;;;5032772;28;20314;-68
2023/03/30 01:15:26;;;;;;;;;;;;;;;;;;5034067;28;19958;-69
2023/03/30 01:17:52;;;;;;;;;;;;;;;;;;5032552;28;19955;-69
2023/03/30 01:20:18;;;;;;;;;;;;;;;;;;5033820;28;20533;-68
2023/03/30 01:22:44;;;;;;;;;;;;;;;;;;5033573;28;19947;-68
2023/03/30 01:25:10;;;;;;;;;;;;;;;;;;5034426;28;20294;-68
2023/03/30 01:27:44;;;;;;;;;;;;;;;;;;5033825;28;20063;-68
2023/03/30 01:30:11;;;;;;;;;;;;;;;;;;5034082;28;19964;-68
2023/03/30 01:32:37;;;;;;;;;;;;;;;;;;5033360;28;20367;-68
2023/03/30 01:35:04;;;;;;;;;;;;;;;;;;5033799;28;19950;-69
2023/03/30 01:37:30;;;;;;;;;;;;;;;;;;5034031;28;19959;-69
2023/03/30 01:39:56;;;;;;;;;;;;;;;;;;5033739;28;19955;-68
2023/03/30 01:42:22;;;;;;;;;;;;;;;;;;5033685;28;20011;-68
2023/03/30 01:44:48;;;;;;;;;;;;;;;;;;5033974;28;20044;-68
2023/03/30 01:47:15;;;;;;;;;;;;;;;;;;5033589;28;20032;-69
2023/03/30 01:49:41;;;;;;;;;;;;;;;;;;5034196;28;20467;-69
2023/03/30 01:52:07;;;;;;;;;;;;;;;;;;5033615;28;19957;-68
2023/03/30 01:54:33;;;;;;;;;;;;;;;;;;5033858;28;19981;-69
2023/03/30 01:56:59;;;;;;;;;;;;;;;;;;5033832;28;19951;-68
2023/03/30 01:59:25;;;;;;;;;;;;;;;;;;5033617;28;19947;-69
2023/03/30 02:01:52;;;;;;;;;;;;;;;;;;5033836;28;19956;-68
2023/03/30 02:04:18;;;;;;;;;;;;;;;;;;5033550;28;19946;-68
2023/03/30 02:06:44;;;;;;;;;;;;;;;;;;5033420;28;19980;-68
2023/03/30 02:09:10;;;;;;;;;;;;;;;;;;5032233;28;20038;-69
2023/03/30 02:11:36;;;;;;;;;;;;;;;;;;5033454;28;19980;-69
2023/03/30 02:14:02;;;;;;;;;;;;;;;;;;5033966;28;20410;-69
2023/03/30 02:16:28;;;;;;;;;;;;;;;;;;5033365;28;19952;-68
2023/03/30 02:18:54;;;;;;;;;;;;;;;;;;5033639;28;19946;-69
2023/03/30 02:21:20;;;;;;;;;;;;;;;;;;5033233;28;20038;-67
2023/03/30 02:23:46;;;;;;;;;;;;;;;;;;5033338;28;19951;-69
2023/03/30 02:26:12;;;;;;;;;;;;;;;;;;5033513;28;19978;-67
2023/03/30 02:28:38;;;;;;;;;;;;;;;;;;5033223;28;19946;-69
2023/03/30 02:31:04;;;;;;;;;;;;;;;;;;5033294;28;20389;-69
2023/03/30 02:33:30;;;;;;;;;;;;;;;;;;5033252;28;19957;-68
2023/03/30 02:35:56;;;;;;;;;;;;;;;;;;5036351;28;20389;-68
2023/03/30 02:38:21;;;;;;;;;;;;;;;;;;5036957;28;19952;-69
2023/03/30 02:40:47;;;;;;;;;;;;;;;;;;5037481;28;20444;-68
2023/03/30 02:43:13;;;;;;;;;;;;;;;;;;5037139;28;19954;-69
2023/03/30 02:45:41;;;;;;;;;;;;;;;;;;5036746;28;20330;-67
2023/03/30 02:48:07;;;;;;;;;;;;;;;;;;5036811;28;19963;-69
2023/03/30 02:50:33;;;;;;;;;;;;;;;;;;5037327;28;20297;-68
2023/03/30 02:52:59;;;;;;;;;;;;;;;;;;5036937;28;19952;-69
2023/03/30 02:55:25;;;;;;;;;;;;;;;;;;5037229;28;20013;-68
2023/03/30 02:57:51;;;;;;;;;;;;;;;;;;5036583;28;19982;-69
2023/03/30 03:00:17;;;;;;;;;;;;;;;;;;5037363;28;19967;-69
2023/03/30 03:02:43;;;;;;;;;;;;;;;;;;5036492;28;19953;-69
2023/03/30 03:05:09;;;;;;;;;;;;;;;;;;5037031;28;19959;-68
2023/03/30 03:07:37;;;;;;;;;;;;;;;;;;5036361;28;19978;-70
2023/03/30 03:10:03;;;;;;;;;;;;;;;;;;5035147;28;19947;-67
2023/03/30 03:12:29;;;;;;;;;;;;;;;;;;5036872;28;19960;-67
2023/03/30 03:14:55;;;;;;;;;;;;;;;;;;5036826;28;20462;-69
2023/03/30 03:17:21;;;;;;;;;;;;;;;;;;5037052;28;19953;-69
2023/03/30 03:19:47;;;;;;;;;;;;;;;;;;5036218;28;19955;-69
2023/03/30 03:22:13;;;;;;;;;;;;;;;;;;5036026;28;19986;-68
2023/03/30 03:24:39;;;;;;;;;;;;;;;;;;5036100;28;20380;-69
2023/03/30 03:27:05;;;;;;;;;;;;;;;;;;5035994;28;20046;-69
2023/03/30 03:29:31;;;;;;;;;;;;;;;;;;5035968;28;19972;-68
2023/03/30 03:31:57;;;;;;;;;;;;;;;;;;5036224;28;20004;-68
2023/03/30 03:34:30;;;;;;;;;;;;;;;;;;5035955;28;19945;-68
2023/03/30 03:36:56;;;;;;;;;;;;;;;;;;5034645;28;19955;-69
2023/03/30 03:39:21;;;;;;;;;;;;;;;;;;5035876;28;19951;-70
2023/03/30 03:41:47;;;;;;;;;;;;;;;;;;5036058;28;19951;-68
2023/03/30 03:44:13;;;;;;;;;;;;;;;;;;5036326;28;19997;-69
2023/03/30 03:46:39;;;;;;;;;;;;;;;;;;5035383;28;19972;-69
2023/03/30 03:49:05;;;;;;;;;;;;;;;;;;5036466;28;20422;-67
2023/03/30 03:51:32;;;;;;;;;;;;;;;;;;5035630;28;19961;-68
2023/03/30 03:53:58;;;;;;;;;;;;;;;;;;5035588;28;19988;-70
2023/03/30 03:56:25;;;;;;;;;;;;;;;;;;5035560;28;20045;-69
2023/03/30 03:58:51;;;;;;;;;;;;;;;;;;5035481;28;19952;-69
2023/03/30 04:01:17;;;;;;;;;;;;;;;;;;5034140;28;20051;-68
2023/03/30 04:03:43;;;;;;;;;;;;;;;;;;5035905;28;20348;-70
2023/03/30 04:06:09;;;;;;;;;;;;;;;;;;5035273;28;20069;-70
2023/03/30 04:08:35;;;;;;;;;;;;;;;;;;5035280;28;19945;-69
2023/03/30 04:11:01;;;;;;;;;;;;;;;;;;5035250;28;19951;-69
2023/03/30 04:13:27;;;;;;;;;;;;;;;;;;5035208;28;19947;-68
2023/03/30 04:15:53;;;;;;;;;;;;;;;;;;5035435;28;19951;-69
2023/03/30 04:18:20;;;;;;;;;;;;;;;;;;5035403;28;19993;-69
2023/03/30 04:20:48;;;;;;;;;;;;;;;;;;5035497;28;20318;-68
2023/03/30 04:23:20;;;;;;;;;;;;;;;;;;5035012;28;20418;-70
2023/03/30 04:25:46;;;;;;;;;;;;;;;;;;5034899;28;19956;-70
2023/03/30 04:28:13;;;;;;;;;;;;;;;;;;5034888;28;19999;-68
2023/03/30 04:30:39;;;;;;;;;;;;;;;;;;5034778;28;20125;-68
2023/03/30 04:33:08;;;;;;;;;;;;;;;;;;5035102;28;19952;-69
2023/03/30 04:35:34;;;;;;;;;;;;;;;;;;5033534;28;19964;-68
2023/03/30 04:38:00;;;;;;;;;;;;;;;;;;5035018;28;19951;-68
2023/03/30 04:40:26;;;;;;;;;;;;;;;;;;5033353;28;19970;-69
2023/03/30 04:42:52;;;;;;;;;;;;;;;;;;5034890;28;19957;-68
2023/03/30 04:45:19;;;;;;;;;;;;;;;;;;5034550;28;19981;-69
2023/03/30 04:47:45;;;;;;;;;;;;;;;;;;5034499;28;20061;-69
2023/03/30 04:50:11;;;;;;;;;;;;;;;;;;5034768;28;19984;-68
2023/03/30 04:52:37;;;;;;;;;;;;;;;;;;5034479;28;20369;-67
2023/03/30 04:55:04;;;;;;;;;;;;;;;;;;5034432;28;19959;-69
2023/03/30 04:57:30;;;;;;;;;;;;;;;;;;5032244;28;19956;-69
2023/03/30 04:59:56;;;;;;;;;;;;;;;;;;5034596;28;19958;-69
2023/03/30 05:02:22;;;;;;;;;;;;;;;;;;5034290;28;19995;-69
2023/03/30 05:04:47;;;;;;;;;;;;;;;;;;5034822;28;20319;-67
2023/03/30 05:07:13;;;;;;;;;;;;;;;;;;5034117;28;19966;-69
2023/03/30 05:09:39;;;;;;;;;;;;;;;;;;5034146;28;19956;-68
2023/03/30 05:12:05;;;;;;;;;;;;;;;;;;5034131;28;19953;-68
2023/03/30 05:14:31;;;;;;;;;;;;;;;;;;5034410;28;20377;-68
2023/03/30 05:16:57;;;;;;;;;;;;;;;;;;5034121;28;19955;-69
2023/03/30 05:19:23;;;;;;;;;;;;;;;;;;5034324;28;19951;-68
2023/03/30 05:21:49;;;;;;;;;;;;;;;;;;5034277;28;19996;-69
2023/03/30 05:24:15;;;;;;;;;;;;;;;;;;5034244;28;19949;-69
2023/03/30 05:26:42;;;;;;;;;;;;;;;;;;5033841;28;19975;-69
2023/03/30 05:29:08;;;;;;;;;;;;;;;;;;5033738;28;19966;-69
2023/03/30 05:31:34;;;;;;;;;;;;;;;;;;5033916;28;19958;-69
2023/03/30 05:34:00;;;;;;;;;;;;;;;;;;5033850;28;19944;-69
2023/03/30 05:36:27;;;;;;;;;;;;;;;;;;5034090;28;19953;-68
2023/03/30 05:38:53;;;;;;;;;;;;;;;;;;5033768;28;19953;-69
2023/03/30 05:41:19;;;;;;;;;;;;;;;;;;5033756;28;20046;-69
2023/03/30 05:43:46;;;;;;;;;;;;;;;;;;5034016;28;19993;-68
2023/03/30 05:46:12;;;;;;;;;;;;;;;;;;5033601;28;19968;-70
2023/03/30 05:48:38;;;;;;;;;;;;;;;;;;5033691;28;19961;-70
2023/03/30 05:51:04;;;;;;;;;;;;;;;;;;5033910;28;19954;-68
2023/03/30 05:53:30;;;;;;;;;;;;;;;;;;5033597;28;19956;-69
2023/03/30 05:55:56;;;;;;;;;;;;;;;;;;5033623;28;20428;-69
2023/03/30 05:58:22;;;;;;;;;;;;;;;;;;5033524;28;20004;-69
2023/03/30 06:00:48;;;;;;;;;;;;;;;;;;5033529;28;20041;-68
2023/03/30 06:03:14;;;;;;;;;;;;;;;;;;5033826;28;19954;-70
2023/03/30 06:05:42;;;;;;;;;;;;;;;;;;5033719;28;20372;-68
2023/03/30 06:08:08;;;;;;;;;;;;;;;;;;5033724;28;20327;-68
2023/03/30 06:10:34;;;;;;;;;;;;;;;;;;5037833;28;19960;-69
2023/03/30 06:13:00;;;;;;;;;;;;;;;;;;5037449;28;20002;-68
2023/03/30 06:15:26;;;;;;;;;;;;;;;;;;5037423;28;20354;-69
2023/03/30 06:17:52;;;;;;;;;;;;;;;;;;5037362;28;19995;-69
2023/03/30 06:20:20;;;;;;;;;;;;;;;;;;5037385;28;19992;-69
2023/03/30 06:22:46;;;;;;;;;;;;;;;;;;5037892;28;19958;-70
2023/03/30 06:25:12;;;;;;;;;;;;;;;;;;5037192;28;20311;-69
2023/03/30 06:27:38;;;;;;;;;;;;;;;;;;5037385;28;20116;-69
2023/03/30 06:30:04;;;;;;;;;;;;;;;;;;5037052;28;20007;-68
2023/03/30 06:32:30;;;;;;;;;;;;;;;;;;5037671;28;19952;-69
2023/03/30 06:34:56;;;;;;;;;;;;;;;;;;5037062;28;19959;-68
2023/03/30 06:37:21;;;;;;;;;;;;;;;;;;5037280;28;19982;-70
2023/03/30 06:39:47;;;;;;;;;;;;;;;;;;5036953;28;19951;-70
2023/03/30 06:42:13;;;;;;;;;;;;;;;;;;5036947;28;20403;-70
2023/03/30 06:44:39;;;;;;;;;;;;;;;;;;5036859;28;20402;-68
2023/03/30 06:47:06;;;;;;;;;;;;;;;;;;5037578;28;19975;-69
2023/03/30 06:49:32;;;;;;;;;;;;;;;;;;5045994;28;19986;-67
2023/03/30 06:51:58;;;;;;;;;;;;;;;;;;5056000;28;19987;-69
2023/03/30 06:54:24;;;;;;;;;;;;;;;;;;5058090;28;19956;-70
2023/03/30 06:56:51;;;;;;;;;;;;;;;;;;5056610;28;19959;-69
2023/03/30 06:59:17;;;;;;;;;;;;;;;;;;5054141;28;19966;-67
2023/03/30 07:01:43;;;;;;;;;;;;;;;;;;5044269;28;19960;-67
2023/03/30 07:04:09;;;;;;;;;;;;;;;;;;5050727;28;19957;-68
2023/03/30 07:06:35;;;;;;;;;;;;;;;;;;5046821;28;19983;-67
2023/03/30 07:09:03;;;;;;;;;;;;;;;;;;5041838;28;19957;-68
2023/03/30 07:11:28;;;;;;;;;;;;;;;;;;5050560;28;19950;-68
2023/03/30 07:13:57;;;;;;;;;;;;;;;;;;5040815;28;20336;-69
2023/03/30 07:16:22;;;;;;;;;;;;;;;;;;5040574;28;19958;-68
2023/03/30 07:18:48;;;;;;;;;;;;;;;;;;5039779;28;19957;-67
2023/03/30 07:21:14;;;;;;;;;;;;;;;;;;5040466;28;20423;-68
2023/03/30 07:23:42;;;;;;;;;;;;;;;;;;5044339;28;19957;-68
2023/03/30 07:26:08;;;;;;;;;;;;;;;;;;5056544;28;19976;-67
2023/03/30 07:28:37;;;;;;;;;;;;;;;;;;5056050;28;19952;-69
2023/03/30 07:31:04;;;;;;;;;;;;;;;;;;5056037;28;19960;-70
2023/03/30 07:33:30;;;;;;;;;;;;;;;;;;5056270;28;19945;-68
2023/03/30 07:35:56;;;;;;;;;;;;;;;;;;5040414;28;19967;-68
2023/03/30 07:38:22;;;;;;;;;;;;;;;;;;5055678;28;20062;-67
2023/03/30 07:40:48;;;;;;;;;;;;;;;;;;5054714;28;19992;-68
2023/03/30 07:43:14;;;;;;;;;;;;;;;;;;5049678;28;19953;-72
2023/03/30 07:45:40;;;;;;;;;;;;;;;;;;5035056;28;19957;-69
2023/03/30 07:48:06;;;;;;;;;;;;;;;;;;5036331;28;20283;-69
2023/03/30 07:50:32;;;;;;;;;;;;;;;;;;5038073;28;20099;-69
2023/03/30 07:52:58;;;;;;;;;;;;;;;;;;5046489;28;19950;-68
2023/03/30 07:55:24;;;;;;;;;;;;;;;;;;5055743;28;20368;-66
2023/03/30 07:57:51;;;;;;;;;;;;;;;;;;5054204;28;19947;-68
2023/03/30 08:00:18;;;;;;;;;;;;;;;;;;5053005;28;20051;-67
2023/03/30 08:02:43;;;;;;;;;;;;;;;;;;5050859;28;20378;-71
2023/03/30 08:05:10;;;;;;;;;;;;;;;;;;5055254;28;19948;-68
2023/03/30 08:07:36;;;;;;;;;;;;;;;;;;5055638;28;19994;-68
2023/03/30 08:10:01;;;;;;;;;;;;;;;;;;5044183;28;20420;-68
2023/03/30 08:12:27;;;;;;;;;;;;;;;;;;5035755;28;19964;-67
2023/03/30 08:14:54;;;;;;;;;;;;;;;;;;5035145;28;19947;-65
2023/03/30 08:17:20;;;;;;;;;;;;;;;;;;5040376;28;19949;-63
2023/03/30 08:19:46;;;;;;;;;;;;;;;;;;5045633;28;19955;-68
2023/03/30 08:22:12;;;;;;;;;;;;;;;;;;5049187;28;20053;-67
2023/03/30 08:24:38;;;;;;;;;;;;;;;;;;5053661;28;19995;-69
2023/03/30 08:27:04;;;;;;;;;;;;;;;;;;5054855;28;19968;-69
2023/03/30 08:29:30;;;;;;;;;;;;;;;;;;5042020;28;20062;-67
2023/03/30 08:31:56;;;;;;;;;;;;;;;;;;5053841;28;19955;-68
2023/03/30 08:34:22;;;;;;;;;;;;;;;;;;5033878;28;19952;-67
2023/03/30 08:36:48;;;;;;;;;;;;;;;;;;5049759;28;20332;-66
2023/03/30 08:39:14;;;;;;;;;;;;;;;;;;5052411;28;19958;-67
2023/03/30 08:41:42;;;;;;;;;;;;;;;;;;5054387;28;19950;-66
2023/03/30 08:44:08;;;;;;;;;;;;;;;;;;5054273;28;20314;-66
2023/03/30 08:46:34;;;;;;;;;;;;;;;;;;5049776;28;19974;-67
2023/03/30 08:49:00;;;;;;;;;;;;;;;;;;5054215;28;19952;-69
2023/03/30 08:51:26;;;;;;;;;;;;;;;;;;5045731;28;20374;-68
2023/03/30 08:53:52;;;;;;;;;;;;;;;;;;5041202;28;19957;-66
2023/03/30 08:56:18;;;;;;;;;;;;;;;;;;5040260;28;20049;-68
2023/03/30 08:58:43;;;;;;;;;;;;;;;;;;5041676;28;20382;-68
2023/03/30 09:01:09;;;;;;;;;;;;;;;;;;5050164;28;19956;-70
2023/03/30 09:03:35;;;;;;;;;;;;;;;;;;5034285;28;20356;-67
2023/03/30 09:06:01;;;;;;;;;;;;;;;;;;5034193;28;20317;-67
2023/03/30 09:08:30;;;;;;;;;;;;;;;;;;5038392;28;19961;-67
2023/03/30 09:10:56;;;;;;;;;;;;;;;;;;5046779;28;20003;-69
2023/03/30 09:13:22;;;;;;;;;;;;;;;;;;5048884;28;20019;-68
2023/03/30 09:15:48;;;;;;;;;;;;;;;;;;5034979;28;20418;-68
2023/03/30 09:18:14;;;;;;;;;;;;;;;;;;5034371;28;20016;-68
2023/03/30 09:20:40;;;;;;;;;;;;;;;;;;5034008;28;20037;-68
2023/03/30 09:23:06;;;;;;;;;;;;;;;;;;5033800;28;20000;-70
2023/03/30 09:25:32;;;;;;;;;;;;;;;;;;5034207;28;20420;-71
2023/03/30 09:27:58;;;;;;;;;;;;;;;;;;5051211;28;20015;-73
2023/03/30 09:30:24;;;;;;;;;;;;;;;;;;5054867;28;20011;-73
2023/03/30 09:32:50;;;;;;;;;;;;;;;;;;5054081;28;19949;-67
2023/03/30 09:35:17;;;;;;;;;;;;;;;;;;5037968;28;19959;-68
2023/03/30 09:37:43;;;;;;;;;;;;;;;;;;5038087;28;19957;-71
2023/03/30 09:40:09;;;;;;;;;;;;;;;;;;5053974;28;19953;-68
2023/03/30 09:42:35;;;;;;;;;;;;;;;;;;5052139;28;19955;-68
2023/03/30 09:45:04;;;;;;;;;;;;;;;;;;5036302;28;20090;-69
2023/03/30 09:47:30;;;;;;;;;;;;;;;;;;5035987;28;20065;-68
2023/03/30 09:49:56;;;;;;;;;;;;;;;;;;5033558;28;20008;-68
2023/03/30 09:52:22;;;;;;;;;;;;;;;;;;5050102;28;19961;-68
2023/03/30 09:54:48;;;;;;;;;;;;;;;;;;5051201;28;19965;-68
2023/03/30 09:57:14;;;;;;;;;;;;;;;;;;5053473;28;20439;-68
2023/03/30 09:59:44;;;;;;;;;;;;;;;;;;5039199;28;20075;-68
2023/03/30 10:02:10;;;;;;;;;;;;;;;;;;5037344;28;20366;-68
2023/03/30 10:04:36;;;;;;;;;;;;;;;;;;5049979;28;20041;-71
2023/03/30 10:07:02;;;;;;;;;;;;;;;;;;5043281;28;19981;-70
2023/03/30 10:09:28;;;;;;;;;;;;;;;;;;5043235;28;19958;-67
2023/03/30 10:11:54;;;;;;;;;;;;;;;;;;5053538;28;19961;-70
2023/03/30 10:14:20;;;;;;;;;;;;;;;;;;5047451;28;19981;-69
2023/03/30 10:16:46;;;;;;;;;;;;;;;;;;5047355;28;19961;-67
2023/03/30 10:19:13;;;;;;;;;;;;;;;;;;5053196;28;20050;-75
2023/03/30 10:21:39;;;;;;;;;;;;;;;;;;5048363;28;20445;-71
2023/03/30 10:24:08;;;;;;;;;;;;;;;;;;5046149;28;20462;-69
2023/03/30 10:26:34;;;;;;;;;;;;;;;;;;5033746;28;19980;-70
2023/03/30 10:29:01;;;;;;;;;;;;;;;;;;5033404;28;19972;-71
2023/03/30 10:31:26;;;;;;;;;;;;;;;;;;5033231;28;19997;-71
2023/03/30 10:33:52;;;;;;;;;;;;;;;;;;5033282;28;19949;-72
2023/03/30 10:36:18;;;;;;;;;;;;;;;;;;5031909;28;19957;-70
2023/03/30 10:38:44;;;;;;;;;;;;;;;;;;5033760;28;19976;-71
2023/03/30 10:41:10;;;;;;;;;;;;;;;;;;5033180;28;19953;-69
2023/03/30 10:43:37;;;;;;;;;;;;;;;;;;5033451;28;19994;-71
2023/03/30 10:46:03;;;;;;;;;;;;;;;;;;5033315;28;19973;-71
2023/03/30 10:48:29;;;;;;;;;;;;;;;;;;5033632;28;19958;-69
2023/03/30 10:50:55;;;;;;;;;;;;;;;;;;5033092;28;19951;-71
2023/03/30 10:53:21;;;;;;;;;;;;;;;;;;5033352;28;20325;-70
2023/03/30 10:55:47;;;;;;;;;;;;;;;;;;5033806;28;19958;-70
2023/03/30 10:58:13;;;;;;;;;;;;;;;;;;5037231;28;20415;-69
2023/03/30 11:00:39;;;;;;;;;;;;;;;;;;5036865;28;19955;-71
2023/03/30 11:03:05;;;;;;;;;;;;;;;;;;5036595;28;20045;-71
2023/03/30 11:05:31;;;;;;;;;;;;;;;;;;5036466;28;19955;-72
2023/03/30 11:07:57;;;;;;;;;;;;;;;;;;5036991;28;20070;-70
2023/03/30 11:10:28;;;;;;;;;;;;;;;;;;5036414;28;19999;-69
2023/03/30 11:12:54;;;;;;;;;;;;;;;;;;5036431;28;19951;-69
2023/03/30 11:15:19;;;;;;;;;;;;;;;;;;5036365;28;20405;-71
2023/03/30 11:17:46;;;;;;;;;;;;;;;;;;5036343;28;19955;-72
2023/03/30 11:20:12;;;;;;;;;;;;;;;;;;5036395;28;19952;-70
2023/03/30 11:22:38;;;;;;;;;;;;;;;;;;5036532;28;20008;-71
2023/03/30 11:25:04;;;;;;;;;;;;;;;;;;5036463;28;19949;-70
2023/03/30 11:27:30;;;;;;;;;;;;;;;;;;5036087;28;20014;-70
2023/03/30 11:29:56;;;;;;;;;;;;;;;;;;5036302;28;19975;-72
2023/03/30 11:32:22;;;;;;;;;;;;;;;;;;5036014;28;19952;-72
2023/03/30 11:34:48;;;;;;;;;;;;;;;;;;5036538;28;19954;-70
2023/03/30 11:37:14;;;;;;;;;;;;;;;;;;5035956;28;20024;-71
2023/03/30 11:39:40;;;;;;;;;;;;;;;;;;5035909;28;19952;-71
2023/03/30 11:42:06;;;;;;;;;;;;;;;;;;5036363;28;19951;-71
2023/03/30 11:44:32;;;;;;;;;;;;;;;;;;5035763;28;20136;-70
2023/03/30 11:46:57;;;;;;;;;;;;;;;;;;5035673;28;19976;-71
2023/03/30 11:49:23;;;;;;;;;;;;;;;;;;5036243;28;20048;-69
2023/03/30 11:51:49;;;;;;;;;;;;;;;;;;5035701;28;19946;-67
2023/03/30 11:54:15;;;;;;;;;;;;;;;;;;5035655;28;19999;-71
2023/03/30 11:56:41;;;;;;;;;;;;;;;;;;5035833;28;20375;-72
2023/03/30 11:59:07;;;;;;;;;;;;;;;;;;5035547;28;19953;-71
2023/03/30 12:01:34;;;;;;;;;;;;;;;;;;5034561;28;19995;-71
2023/03/30 12:04:00;;;;;;;;;;;;;;;;;;5044234;28;19951;-67
2023/03/30 12:06:26;;;;;;;;;;;;;;;;;;5042823;28;19993;-66
2023/03/30 12:08:52;;;;;;;;;;;;;;;;;;5042534;28;20457;-69
2023/03/30 12:11:18;;;;;;;;;;;;;;;;;;5035840;28;19949;-70
2023/03/30 12:13:44;;;;;;;;;;;;;;;;;;5035233;28;19948;-67
2023/03/30 12:16:10;;;;;;;;;;;;;;;;;;5035425;28;20040;-73
2023/03/30 12:18:36;;;;;;;;;;;;;;;;;;5037255;28;20052;-68
2023/03/30 12:21:02;;;;;;;;;;;;;;;;;;5042398;28;20043;-68
2023/03/30 12:23:28;;;;;;;;;;;;;;;;;;5042208;28;19977;-67
2023/03/30 12:25:54;;;;;;;;;;;;;;;;;;5034981;28;20055;-67
2023/03/30 12:28:20;;;;;;;;;;;;;;;;;;5034776;28;20038;-67
2023/03/30 12:30:47;;;;;;;;;;;;;;;;;;5041604;28;19983;-69
2023/03/30 12:33:13;;;;;;;;;;;;;;;;;;5043498;28;19978;-66
2023/03/30 12:35:39;;;;;;;;;;;;;;;;;;5055288;28;20409;-67
2023/03/30 12:38:05;;;;;;;;;;;;;;;;;;5049939;28;19967;-67
2023/03/30 12:40:31;;;;;;;;;;;;;;;;;;5048837;28;19958;-65
2023/03/30 12:42:57;;;;;;;;;;;;;;;;;;5054855;28;19974;-65
2023/03/30 12:45:23;;;;;;;;;;;;;;;;;;5055084;28;19952;-64
2023/03/30 12:47:49;;;;;;;;;;;;;;;;;;5044688;28;19996;-73
2023/03/30 12:50:15;;;;;;;;;;;;;;;;;;5034516;28;20372;-71
2023/03/30 12:52:41;;;;;;;;;;;;;;;;;;5041935;28;19988;-68
2023/03/30 12:55:07;;;;;;;;;;;;;;;;;;5054914;28;19952;-65
2023/03/30 12:57:33;;;;;;;;;;;;;;;;;;5050313;28;19958;-72
2023/03/30 12:59:59;;;;;;;;;;;;;;;;;;5054630;28;20014;-72
2023/03/30 13:02:25;;;;;;;;;;;;;;;;;;5052776;28;20079;-72
2023/03/30 13:04:51;;;;;;;;;;;;;;;;;;5054106;28;19955;-70
2023/03/30 13:07:17;;;;;;;;;;;;;;;;;;5054162;28;19980;-70
2023/03/30 13:09:43;;;;;;;;;;;;;;;;;;5054355;28;19958;-66
2023/03/30 13:12:09;;;;;;;;;;;;;;;;;;5034670;28;19991;-67
2023/03/30 13:14:37;;;;;;;;;;;;;;;;;;5035420;28;19956;-68
2023/03/30 13:17:04;;;;;;;;;;;;;;;;;;5058884;28;19997;-69
2023/03/30 13:19:33;;;;;;;;;;;;;;;;;;5053384;28;19948;-68
2023/03/30 13:21:59;;;;;;;;;;;;;;;;;;5039441;28;20412;-69
2023/03/30 13:24:25;;;;;;;;;;;;;;;;;;5048859;28;20002;-69
2023/03/30 13:26:52;;;;;;;;;;;;;;;;;;5038911;28;19972;-72
2023/03/30 13:29:18;;;;;;;;;;;;;;;;;;5034723;28;19978;-70
2023/03/30 13:31:44;;;;;;;;;;;;;;;;;;5034150;28;19953;-66
2023/03/30 13:34:10;;;;;;;;;;;;;;;;;;5034834;28;19960;-68
2023/03/30 13:36:36;;;;;;;;;;;;;;;;;;5045336;28;19955;-69
2023/03/30 13:39:02;;;;;;;;;;;;;;;;;;5044954;28;20331;-68
2023/03/30 13:41:28;;;;;;;;;;;;;;;;;;5033802;28;20405;-70
2023/03/30 13:43:54;;;;;;;;;;;;;;;;;;5051491;28;19989;-70
2023/03/30 13:46:20;;;;;;;;;;;;;;;;;;5045000;28;19977;-71
2023/03/30 13:48:46;;;;;;;;;;;;;;;;;;5044703;28;19961;-70
2023/03/30 13:51:12;;;;;;;;;;;;;;;;;;5052765;28;20005;-69
2023/03/30 13:53:38;;;;;;;;;;;;;;;;;;5049293;28;19973;-68
2023/03/30 13:56:04;;;;;;;;;;;;;;;;;;5053835;28;19960;-68
2023/03/30 13:58:31;;;;;;;;;;;;;;;;;;5053073;28;19960;-72
2023/03/30 14:00:57;;;;;;;;;;;;;;;;;;5033860;28;19955;-67
2023/03/30 14:03:23;;;;;;;;;;;;;;;;;;5046051;28;20449;-67
2023/03/30 14:05:49;;;;;;;;;;;;;;;;;;5052626;28;19979;-68
2023/03/30 14:08:16;;;;;;;;;;;;;;;;;;5047166;28;20405;-68
2023/03/30 14:10:42;;;;;;;;;;;;;;;;;;5033730;28;20420;-68
2023/03/30 14:13:08;;;;;;;;;;;;;;;;;;5033370;28;19960;-69
2023/03/30 14:15:33;;;;;;;;;;;;;;;;;;5033767;28;20004;-68
2023/03/30 14:17:59;;;;;;;;;;;;;;;;;;5033511;28;19947;-77
2023/03/30 14:20:25;;;;;;;;;;;;;;;;;;5033451;28;19983;-74
2023/03/30 14:22:52;;;;;;;;;;;;;;;;;;5037640;28;19983;-71
2023/03/30 14:25:18;;;;;;;;;;;;;;;;;;5048119;28;19989;-68
2023/03/30 14:27:44;;;;;;;;;;;;;;;;;;5040634;28;20007;-68
2023/03/30 14:30:10;;;;;;;;;;;;;;;;;;5041228;28;20483;-69
2023/03/30 14:32:36;;;;;;;;;;;;;;;;;;5055257;28;19967;-69
2023/03/30 14:35:02;;;;;;;;;;;;;;;;;;5049653;28;19951;-68
2023/03/30 14:37:28;;;;;;;;;;;;;;;;;;5051005;28;19956;-72
2023/03/30 14:39:54;;;;;;;;;;;;;;;;;;5039512;28;19956;-67
2023/03/30 14:42:20;;;;;;;;;;;;;;;;;;5056488;28;19991;-69
2023/03/30 14:44:47;;;;;;;;;;;;;;;;;;5052103;28;20046;-69
2023/03/30 14:47:12;;;;;;;;;;;;;;;;;;5037989;28;19968;-68
2023/03/30 14:49:38;;;;;;;;;;;;;;;;;;5052523;28;19963;-68
2023/03/30 14:52:04;;;;;;;;;;;;;;;;;;5050903;28;19960;-71
2023/03/30 14:54:30;;;;;;;;;;;;;;;;;;5054233;28;20370;-71
2023/03/30 14:56:56;;;;;;;;;;;;;;;;;;5038094;28;19957;-68
2023/03/30 14:59:22;;;;;;;;;;;;;;;;;;5037105;28;19988;-71
2023/03/30 15:01:48;;;;;;;;;;;;;;;;;;5036911;28;19952;-71
2023/03/30 15:04:14;;;;;;;;;;;;;;;;;;5036607;28;20396;-72
2023/03/30 15:06:40;;;;;;;;;;;;;;;;;;5036465;28;19969;-70
2023/03/30 15:09:06;;;;;;;;;;;;;;;;;;5035815;28;20329;-70
2023/03/30 15:11:32;;;;;;;;;;;;;;;;;;5036442;28;19951;-71
2023/03/30 15:13:57;;;;;;;;;;;;;;;;;;5036399;28;20362;-71
2023/03/30 15:16:23;;;;;;;;;;;;;;;;;;5036907;28;20282;-72
2023/03/30 15:18:49;;;;;;;;;;;;;;;;;;5036604;28;20054;-70
2023/03/30 15:21:15;;;;;;;;;;;;;;;;;;5036138;28;19988;-71
2023/03/30 15:23:41;;;;;;;;;;;;;;;;;;5036792;28;20383;-71
2023/03/30 15:26:07;;;;;;;;;;;;;;;;;;5036390;28;19958;-68
2023/03/30 15:28:34;;;;;;;;;;;;;;;;;;5036121;28;19953;-70
2023/03/30 15:30:59;;;;;;;;;;;;;;;;;;5036350;28;19951;-70
2023/03/30 15:33:25;;;;;;;;;;;;;;;;;;5036046;28;19951;-71
2023/03/30 15:35:51;;;;;;;;;;;;;;;;;;5036265;28;20290;-70
2023/03/30 15:38:17;;;;;;;;;;;;;;;;;;5035960;28;19957;-69
2023/03/30 15:40:43;;;;;;;;;;;;;;;;;;5035971;28;19953;-68
2023/03/30 15:43:09;;;;;;;;;;;;;;;;;;5034046;28;20088;-71
2023/03/30 15:45:35;;;;;;;;;;;;;;;;;;5035829;28;19952;-69
2023/03/30 15:48:01;;;;;;;;;;;;;;;;;;5036282;28;19972;-73
2023/03/30 15:50:27;;;;;;;;;;;;;;;;;;5036038;28;19955;-68
2023/03/30 15:52:53;;;;;;;;;;;;;;;;;;5035954;28;19959;-70
2023/03/30 15:55:20;;;;;;;;;;;;;;;;;;5035629;28;20051;-72
2023/03/30 15:57:46;;;;;;;;;;;;;;;;;;5036252;28;19991;-68
2023/03/30 16:00:12;;;;;;;;;;;;;;;;;;5035547;28;19999;-71
2023/03/30 16:02:37;;;;;;;;;;;;;;;;;;5035776;28;20041;-69
2023/03/30 16:05:03;;;;;;;;;;;;;;;;;;5035450;28;19947;-73
2023/03/30 16:07:29;;;;;;;;;;;;;;;;;;5035601;28;19973;-70
2023/03/30 16:09:55;;;;;;;;;;;;;;;;;;5035650;28;19960;-70
2023/03/30 16:12:21;;;;;;;;;;;;;;;;;;5035320;28;20395;-72
2023/03/30 16:14:47;;;;;;;;;;;;;;;;;;5035282;28;19961;-72
2023/03/30 16:17:13;;;;;;;;;;;;;;;;;;5035483;28;19952;-72
2023/03/30 16:19:39;;;;;;;;;;;;;;;;;;5035155;28;19961;-70
2023/03/30 16:22:05;;;;;;;;;;;;;;;;;;5034838;28;19981;-69
2023/03/30 16:24:31;;;;;;;;;;;;;;;;;;5035101;28;19978;-71
2023/03/30 16:26:57;;;;;;;;;;;;;;;;;;5034975;28;20360;-71
2023/03/30 16:29:23;;;;;;;;;;;;;;;;;;5035078;28;19967;-70
2023/03/30 16:31:49;;;;;;;;;;;;;;;;;;5034950;28;20298;-69
2023/03/30 16:34:15;;;;;;;;;;;;;;;;;;5035174;28;19956;-71
2023/03/30 16:36:41;;;;;;;;;;;;;;;;;;5034825;28;19999;-72
2023/03/30 16:39:07;;;;;;;;;;;;;;;;;;5035058;28;19956;-72